sensor_id;sensor_type;location;lat;lon;timestamp;P1;durP1;ratioP1;P2;durP2;ratioP2
24517;SDS011;12678;51.336;12.406;2023-12-20T00:00:57;7.53;;;4.20;;
24517;SDS011;12678;51.336;12.406;2023-12-20T00:03:22;5.68;;;3.28;;
24517;SDS011;12678;51.336;12.406;2023-12-20T00:05:49;6.55;;;3.78;;
24517;SDS011;12678;51.336;12.406;2023-12-20T00:08:15;7.00;;;4.00;;
24517;SDS011;12678;51.336;12.406;2023-12-20T00:10:40;7.88;;;3.95;;
24517;SDS011;12678;51.336;12.406;2023-12-20T00:13:06;5.82;;;3.30;;
24517;SDS011;12678;51.336;12.406;2023-12-20T00:15:32;6.57;;;3.65;;
24517;SDS011;12678;51.336;12.406;2023-12-20T00:18:00;7.32;;;4.13;;
24517;SDS011;12678;51.336;12.406;2023-12-20T00:20:25;6.28;;;3.40;;
24517;SDS011;12678;51.336;12.406;2023-12-20T00:22:51;4.53;;;2.92;;
24517;SDS011;12678;51.336;12.406;2023-12-20T00:25:18;6.05;;;3.00;;
24517;SDS011;12678;51.336;12.406;2023-12-20T00:27:44;3.53;;;2.72;;
24517;SDS011;12678;51.336;12.406;2023-12-20T00:30:09;3.70;;;2.83;;
24517;SDS011;12678;51.336;12.406;2023-12-20T00:32:35;4.10;;;2.70;;
24517;SDS011;12678;51.336;12.406;2023-12-20T00:35:01;5.07;;;2.85;;
24517;SDS011;12678;51.336;12.406;2023-12-20T00:37:27;4.13;;;2.70;;
24517;SDS011;12678;51.336;12.406;2023-12-20T00:39:52;6.80;;;3.20;;
24517;SDS011;12678;51.336;12.406;2023-12-20T00:42:18;3.55;;;2.80;;
24517;SDS011;12678;51.336;12.406;2023-12-20T00:44:43;7.63;;;2.78;;
24517;SDS011;12678;51.336;12.406;2023-12-20T00:47:09;2.88;;;2.20;;
24517;SDS011;12678;51.336;12.406;2023-12-20T00:49:35;4.60;;;2.28;;
24517;SDS011;12678;51.336;12.406;2023-12-20T00:52:00;3.67;;;2.60;;
24517;SDS011;12678;51.336;12.406;2023-12-20T00:54:26;4.85;;;2.20;;
24517;SDS011;12678;51.336;12.406;2023-12-20T00:56:52;3.28;;;2.40;;
24517;SDS011;12678;51.336;12.406;2023-12-20T00:59:17;2.33;;;1.85;;
24517;SDS011;12678;51.336;12.406;2023-12-20T01:01:43;3.75;;;2.30;;
24517;SDS011;12678;51.336;12.406;2023-12-20T01:04:09;3.10;;;2.15;;
24517;SDS011;12678;51.336;12.406;2023-12-20T01:06:35;2.97;;;2.33;;
24517;SDS011;12678;51.336;12.406;2023-12-20T01:09:00;3.42;;;2.10;;
24517;SDS011;12678;51.336;12.406;2023-12-20T01:11:26;2.88;;;2.00;;
24517;SDS011;12678;51.336;12.406;2023-12-20T01:13:51;5.60;;;2.40;;
24517;SDS011;12678;51.336;12.406;2023-12-20T01:16:17;3.55;;;1.70;;
24517;SDS011;12678;51.336;12.406;2023-12-20T01:18:42;4.60;;;2.15;;
24517;SDS011;12678;51.336;12.406;2023-12-20T01:21:08;2.42;;;1.63;;
24517;SDS011;12678;51.336;12.406;2023-12-20T01:23:33;3.72;;;2.33;;
24517;SDS011;12678;51.336;12.406;2023-12-20T01:25:59;2.70;;;1.95;;
24517;SDS011;12678;51.336;12.406;2023-12-20T01:28:25;2.10;;;1.65;;
24517;SDS011;12678;51.336;12.406;2023-12-20T01:30:51;1.73;;;1.63;;
24517;SDS011;12678;51.336;12.406;2023-12-20T01:33:16;1.88;;;1.77;;
24517;SDS011;12678;51.336;12.406;2023-12-20T01:35:42;3.30;;;1.83;;
24517;SDS011;12678;51.336;12.406;2023-12-20T01:38:08;2.33;;;1.85;;
24517;SDS011;12678;51.336;12.406;2023-12-20T01:40:34;2.75;;;1.58;;
24517;SDS011;12678;51.336;12.406;2023-12-20T01:43:00;2.83;;;2.08;;
24517;SDS011;12678;51.336;12.406;2023-12-20T01:45:26;1.90;;;1.80;;
24517;SDS011;12678;51.336;12.406;2023-12-20T01:47:52;4.50;;;1.73;;
24517;SDS011;12678;51.336;12.406;2023-12-20T01:50:19;1.42;;;1.33;;
24517;SDS011;12678;51.336;12.406;2023-12-20T01:52:46;4.95;;;1.92;;
24517;SDS011;12678;51.336;12.406;2023-12-20T01:55:12;3.00;;;2.38;;
24517;SDS011;12678;51.336;12.406;2023-12-20T01:57:43;3.08;;;2.13;;
24517;SDS011;12678;51.336;12.406;2023-12-20T02:00:10;2.75;;;1.60;;
24517;SDS011;12678;51.336;12.406;2023-12-20T02:02:39;2.40;;;1.60;;
24517;SDS011;12678;51.336;12.406;2023-12-20T02:05:08;1.80;;;1.50;;
24517;SDS011;12678;51.336;12.406;2023-12-20T02:07:34;2.58;;;1.58;;
24517;SDS011;12678;51.336;12.406;2023-12-20T02:10:00;2.20;;;1.70;;
24517;SDS011;12678;51.336;12.406;2023-12-20T02:12:26;2.17;;;1.63;;
24517;SDS011;12678;51.336;12.406;2023-12-20T02:14:51;2.25;;;1.90;;
24517;SDS011;12678;51.336;12.406;2023-12-20T02:17:18;1.77;;;1.67;;
24517;SDS011;12678;51.336;12.406;2023-12-20T02:19:44;2.22;;;1.70;;
24517;SDS011;12678;51.336;12.406;2023-12-20T02:22:10;2.13;;;1.70;;
24517;SDS011;12678;51.336;12.406;2023-12-20T02:24:36;1.63;;;1.15;;
24517;SDS011;12678;51.336;12.406;2023-12-20T02:27:03;4.00;;;2.20;;
24517;SDS011;12678;51.336;12.406;2023-12-20T02:29:30;2.17;;;1.40;;
24517;SDS011;12678;51.336;12.406;2023-12-20T02:31:56;2.00;;;1.70;;
24517;SDS011;12678;51.336;12.406;2023-12-20T02:34:21;1.88;;;1.67;;
24517;SDS011;12678;51.336;12.406;2023-12-20T02:36:47;1.52;;;1.42;;
24517;SDS011;12678;51.336;12.406;2023-12-20T02:39:13;2.08;;;1.50;;
24517;SDS011;12678;51.336;12.406;2023-12-20T02:41:38;1.40;;;1.30;;
24517;SDS011;12678;51.336;12.406;2023-12-20T02:44:04;1.52;;;1.42;;
24517;SDS011;12678;51.336;12.406;2023-12-20T02:46:29;2.83;;;1.70;;
24517;SDS011;12678;51.336;12.406;2023-12-20T02:48:55;4.80;;;1.60;;
24517;SDS011;12678;51.336;12.406;2023-12-20T02:51:20;1.80;;;1.67;;
24517;SDS011;12678;51.336;12.406;2023-12-20T02:53:46;3.47;;;1.77;;
24517;SDS011;12678;51.336;12.406;2023-12-20T02:56:12;1.65;;;1.50;;
24517;SDS011;12678;51.336;12.406;2023-12-20T02:58:38;1.50;;;1.27;;
24517;SDS011;12678;51.336;12.406;2023-12-20T03:01:04;1.65;;;1.55;;
24517;SDS011;12678;51.336;12.406;2023-12-20T03:03:29;2.20;;;1.85;;
24517;SDS011;12678;51.336;12.406;2023-12-20T03:05:55;1.58;;;1.40;;
24517;SDS011;12678;51.336;12.406;2023-12-20T03:08:20;1.50;;;1.38;;
24517;SDS011;12678;51.336;12.406;2023-12-20T03:10:46;1.88;;;1.67;;
24517;SDS011;12678;51.336;12.406;2023-12-20T03:13:11;2.05;;;1.50;;
24517;SDS011;12678;51.336;12.406;2023-12-20T03:15:37;1.85;;;1.60;;
24517;SDS011;12678;51.336;12.406;2023-12-20T03:18:02;3.30;;;1.98;;
24517;SDS011;12678;51.336;12.406;2023-12-20T03:20:28;2.00;;;1.50;;
24517;SDS011;12678;51.336;12.406;2023-12-20T03:22:56;1.92;;;1.55;;
24517;SDS011;12678;51.336;12.406;2023-12-20T03:25:21;1.67;;;1.45;;
24517;SDS011;12678;51.336;12.406;2023-12-20T03:27:47;3.10;;;1.63;;
24517;SDS011;12678;51.336;12.406;2023-12-20T03:30:12;1.88;;;1.58;;
24517;SDS011;12678;51.336;12.406;2023-12-20T03:32:38;1.88;;;1.50;;
24517;SDS011;12678;51.336;12.406;2023-12-20T03:35:04;1.70;;;1.52;;
24517;SDS011;12678;51.336;12.406;2023-12-20T03:37:30;1.90;;;1.42;;
24517;SDS011;12678;51.336;12.406;2023-12-20T03:39:55;2.80;;;1.77;;
24517;SDS011;12678;51.336;12.406;2023-12-20T03:42:21;5.10;;;1.88;;
24517;SDS011;12678;51.336;12.406;2023-12-20T03:44:46;2.20;;;1.80;;
24517;SDS011;12678;51.336;12.406;2023-12-20T03:47:12;1.63;;;1.50;;
24517;SDS011;12678;51.336;12.406;2023-12-20T03:49:37;1.63;;;1.52;;
24517;SDS011;12678;51.336;12.406;2023-12-20T03:52:03;1.88;;;1.65;;
24517;SDS011;12678;51.336;12.406;2023-12-20T03:54:29;3.13;;;1.67;;
24517;SDS011;12678;51.336;12.406;2023-12-20T03:56:55;1.63;;;1.52;;
24517;SDS011;12678;51.336;12.406;2023-12-20T03:59:21;1.95;;;1.75;;
24517;SDS011;12678;51.336;12.406;2023-12-20T04:01:46;1.67;;;1.52;;
24517;SDS011;12678;51.336;12.406;2023-12-20T04:04:12;2.25;;;1.70;;
24517;SDS011;12678;51.336;12.406;2023-12-20T04:06:38;1.65;;;1.55;;
24517;SDS011;12678;51.336;12.406;2023-12-20T04:09:04;2.15;;;1.60;;
24517;SDS011;12678;51.336;12.406;2023-12-20T04:11:30;2.13;;;1.92;;
24517;SDS011;12678;51.336;12.406;2023-12-20T04:13:56;2.25;;;1.90;;
24517;SDS011;12678;51.336;12.406;2023-12-20T04:16:21;2.10;;;1.90;;
24517;SDS011;12678;51.336;12.406;2023-12-20T04:18:47;3.78;;;1.85;;
24517;SDS011;12678;51.336;12.406;2023-12-20T04:21:12;2.88;;;1.95;;
24517;SDS011;12678;51.336;12.406;2023-12-20T04:23:38;4.25;;;2.17;;
24517;SDS011;12678;51.336;12.406;2023-12-20T04:26:03;2.75;;;2.08;;
24517;SDS011;12678;51.336;12.406;2023-12-20T04:28:29;2.88;;;2.10;;
24517;SDS011;12678;51.336;12.406;2023-12-20T04:30:55;2.72;;;1.98;;
24517;SDS011;12678;51.336;12.406;2023-12-20T04:33:21;3.67;;;2.40;;
24517;SDS011;12678;51.336;12.406;2023-12-20T04:35:47;2.60;;;2.17;;
24517;SDS011;12678;51.336;12.406;2023-12-20T04:38:13;6.88;;;2.20;;
24517;SDS011;12678;51.336;12.406;2023-12-20T04:40:38;4.53;;;2.60;;
24517;SDS011;12678;51.336;12.406;2023-12-20T04:43:05;3.25;;;2.25;;
24517;SDS011;12678;51.336;12.406;2023-12-20T04:45:31;3.70;;;2.50;;
24517;SDS011;12678;51.336;12.406;2023-12-20T04:47:57;4.50;;;2.55;;
24517;SDS011;12678;51.336;12.406;2023-12-20T04:50:22;7.55;;;4.80;;
24517;SDS011;12678;51.336;12.406;2023-12-20T04:52:48;3.42;;;2.42;;
24517;SDS011;12678;51.336;12.406;2023-12-20T04:55:14;6.20;;;2.45;;
24517;SDS011;12678;51.336;12.406;2023-12-20T04:57:39;2.10;;;1.85;;
24517;SDS011;12678;51.336;12.406;2023-12-20T05:00:05;5.15;;;2.75;;
24517;SDS011;12678;51.336;12.406;2023-12-20T05:02:33;2.95;;;2.33;;
24517;SDS011;12678;51.336;12.406;2023-12-20T05:04:59;5.43;;;2.70;;
24517;SDS011;12678;51.336;12.406;2023-12-20T05:07:24;2.42;;;1.95;;
24517;SDS011;12678;51.336;12.406;2023-12-20T05:09:50;12.18;;;7.65;;
24517;SDS011;12678;51.336;12.406;2023-12-20T05:12:15;27.38;;;15.65;;
24517;SDS011;12678;51.336;12.406;2023-12-20T05:14:41;7.78;;;3.50;;
24517;SDS011;12678;51.336;12.406;2023-12-20T05:17:06;12.88;;;7.45;;
24517;SDS011;12678;51.336;12.406;2023-12-20T05:19:32;7.97;;;6.03;;
24517;SDS011;12678;51.336;12.406;2023-12-20T05:22:00;7.32;;;5.10;;
24517;SDS011;12678;51.336;12.406;2023-12-20T05:24:26;9.43;;;6.28;;
24517;SDS011;12678;51.336;12.406;2023-12-20T05:26:52;5.90;;;3.88;;
24517;SDS011;12678;51.336;12.406;2023-12-20T05:29:17;7.47;;;5.18;;
24517;SDS011;12678;51.336;12.406;2023-12-20T05:31:43;5.95;;;3.35;;
24517;SDS011;12678;51.336;12.406;2023-12-20T05:34:08;6.57;;;3.75;;
24517;SDS011;12678;51.336;12.406;2023-12-20T05:36:34;8.25;;;3.40;;
24517;SDS011;12678;51.336;12.406;2023-12-20T05:39:00;4.30;;;3.13;;
24517;SDS011;12678;51.336;12.406;2023-12-20T05:41:26;7.13;;;3.33;;
24517;SDS011;12678;51.336;12.406;2023-12-20T05:43:51;7.43;;;4.57;;
24517;SDS011;12678;51.336;12.406;2023-12-20T05:46:17;7.28;;;4.65;;
24517;SDS011;12678;51.336;12.406;2023-12-20T05:48:42;6.25;;;3.50;;
24517;SDS011;12678;51.336;12.406;2023-12-20T05:51:10;6.88;;;3.50;;
24517;SDS011;12678;51.336;12.406;2023-12-20T05:53:36;4.80;;;3.00;;
24517;SDS011;12678;51.336;12.406;2023-12-20T05:56:02;5.55;;;3.05;;
24517;SDS011;12678;51.336;12.406;2023-12-20T05:58:29;5.13;;;3.20;;
24517;SDS011;12678;51.336;12.406;2023-12-20T06:00:54;8.05;;;3.83;;
24517;SDS011;12678;51.336;12.406;2023-12-20T06:03:20;6.65;;;3.90;;
24517;SDS011;12678;51.336;12.406;2023-12-20T06:05:45;5.32;;;3.53;;
24517;SDS011;12678;51.336;12.406;2023-12-20T06:08:11;7.97;;;4.57;;
24517;SDS011;12678;51.336;12.406;2023-12-20T06:10:37;7.15;;;4.30;;
24517;SDS011;12678;51.336;12.406;2023-12-20T06:13:02;6.00;;;3.63;;
24517;SDS011;12678;51.336;12.406;2023-12-20T06:15:29;8.15;;;4.63;;
24517;SDS011;12678;51.336;12.406;2023-12-20T06:17:55;5.97;;;3.83;;
24517;SDS011;12678;51.336;12.406;2023-12-20T06:20:20;4.55;;;3.25;;
24517;SDS011;12678;51.336;12.406;2023-12-20T06:22:46;6.63;;;3.80;;
24517;SDS011;12678;51.336;12.406;2023-12-20T06:25:11;4.63;;;3.30;;
24517;SDS011;12678;51.336;12.406;2023-12-20T06:27:37;7.03;;;3.35;;
24517;SDS011;12678;51.336;12.406;2023-12-20T06:30:03;4.68;;;3.28;;
24517;SDS011;12678;51.336;12.406;2023-12-20T06:32:29;5.75;;;3.45;;
24517;SDS011;12678;51.336;12.406;2023-12-20T06:34:55;3.63;;;3.10;;
24517;SDS011;12678;51.336;12.406;2023-12-20T06:37:21;5.85;;;3.25;;
24517;SDS011;12678;51.336;12.406;2023-12-20T06:39:46;4.70;;;3.03;;
24517;SDS011;12678;51.336;12.406;2023-12-20T06:42:12;5.18;;;3.35;;
24517;SDS011;12678;51.336;12.406;2023-12-20T06:44:38;8.00;;;3.33;;
24517;SDS011;12678;51.336;12.406;2023-12-20T06:47:04;3.53;;;2.47;;
24517;SDS011;12678;51.336;12.406;2023-12-20T06:49:30;4.88;;;2.30;;
24517;SDS011;12678;51.336;12.406;2023-12-20T06:51:55;3.17;;;2.40;;
24517;SDS011;12678;51.336;12.406;2023-12-20T06:54:21;4.75;;;2.80;;
24517;SDS011;12678;51.336;12.406;2023-12-20T06:56:46;6.15;;;3.28;;
24517;SDS011;12678;51.336;12.406;2023-12-20T06:59:12;7.10;;;2.88;;
24517;SDS011;12678;51.336;12.406;2023-12-20T07:01:37;4.82;;;2.70;;
24517;SDS011;12678;51.336;12.406;2023-12-20T07:04:03;3.28;;;2.33;;
24517;SDS011;12678;51.336;12.406;2023-12-20T07:06:28;6.05;;;2.63;;
24517;SDS011;12678;51.336;12.406;2023-12-20T07:08:54;3.90;;;2.83;;
24517;SDS011;12678;51.336;12.406;2023-12-20T07:11:20;4.45;;;2.72;;
24517;SDS011;12678;51.336;12.406;2023-12-20T07:13:45;3.58;;;2.50;;
24517;SDS011;12678;51.336;12.406;2023-12-20T07:16:11;4.07;;;2.08;;
24517;SDS011;12678;51.336;12.406;2023-12-20T07:18:36;3.28;;;2.63;;
24517;SDS011;12678;51.336;12.406;2023-12-20T07:21:02;3.55;;;2.30;;
24517;SDS011;12678;51.336;12.406;2023-12-20T07:23:28;5.22;;;2.50;;
24517;SDS011;12678;51.336;12.406;2023-12-20T07:25:55;4.03;;;2.08;;
24517;SDS011;12678;51.336;12.406;2023-12-20T07:28:20;3.92;;;2.38;;
24517;SDS011;12678;51.336;12.406;2023-12-20T07:30:46;4.70;;;2.33;;
24517;SDS011;12678;51.336;12.406;2023-12-20T07:33:11;7.93;;;2.15;;
24517;SDS011;12678;51.336;12.406;2023-12-20T07:35:37;19.25;;;4.63;;
24517;SDS011;12678;51.336;12.406;2023-12-20T07:38:03;11.70;;;4.50;;
24517;SDS011;12678;51.336;12.406;2023-12-20T07:40:28;10.85;;;2.42;;
24517;SDS011;12678;51.336;12.406;2023-12-20T07:42:54;3.55;;;2.25;;
24517;SDS011;12678;51.336;12.406;2023-12-20T07:45:20;5.78;;;1.60;;
24517;SDS011;12678;51.336;12.406;2023-12-20T07:47:45;2.28;;;1.60;;
24517;SDS011;12678;51.336;12.406;2023-12-20T07:50:11;1.65;;;1.50;;
24517;SDS011;12678;51.336;12.406;2023-12-20T07:52:36;2.67;;;1.65;;
24517;SDS011;12678;51.336;12.406;2023-12-20T07:55:02;3.17;;;1.60;;
24517;SDS011;12678;51.336;12.406;2023-12-20T07:57:29;3.20;;;1.85;;
24517;SDS011;12678;51.336;12.406;2023-12-20T07:59:55;3.17;;;1.92;;
24517;SDS011;12678;51.336;12.406;2023-12-20T08:02:21;4.88;;;1.92;;
24517;SDS011;12678;51.336;12.406;2023-12-20T08:04:46;5.40;;;1.60;;
24517;SDS011;12678;51.336;12.406;2023-12-20T08:07:12;4.18;;;1.60;;
24517;SDS011;12678;51.336;12.406;2023-12-20T08:09:38;4.30;;;1.67;;
24517;SDS011;12678;51.336;12.406;2023-12-20T08:12:04;4.05;;;1.83;;
24517;SDS011;12678;51.336;12.406;2023-12-20T08:14:30;6.22;;;1.88;;
24517;SDS011;12678;51.336;12.406;2023-12-20T08:16:56;4.10;;;1.60;;
24517;SDS011;12678;51.336;12.406;2023-12-20T08:19:22;5.80;;;1.80;;
24517;SDS011;12678;51.336;12.406;2023-12-20T08:21:49;4.03;;;1.42;;
24517;SDS011;12678;51.336;12.406;2023-12-20T08:24:15;5.82;;;2.00;;
24517;SDS011;12678;51.336;12.406;2023-12-20T08:26:41;6.95;;;1.60;;
24517;SDS011;12678;51.336;12.406;2023-12-20T08:29:07;4.13;;;1.92;;
24517;SDS011;12678;51.336;12.406;2023-12-20T08:31:32;2.97;;;1.52;;
24517;SDS011;12678;51.336;12.406;2023-12-20T08:33:59;2.42;;;1.67;;
24517;SDS011;12678;51.336;12.406;2023-12-20T08:36:25;3.22;;;1.98;;
24517;SDS011;12678;51.336;12.406;2023-12-20T08:38:50;8.43;;;1.95;;
24517;SDS011;12678;51.336;12.406;2023-12-20T08:41:16;2.17;;;1.67;;
24517;SDS011;12678;51.336;12.406;2023-12-20T08:43:42;2.55;;;1.88;;
24517;SDS011;12678;51.336;12.406;2023-12-20T08:46:08;6.88;;;3.05;;
24517;SDS011;12678;51.336;12.406;2023-12-20T08:48:37;4.05;;;2.35;;
24517;SDS011;12678;51.336;12.406;2023-12-20T08:51:03;5.32;;;1.85;;
24517;SDS011;12678;51.336;12.406;2023-12-20T08:53:29;3.50;;;1.98;;
24517;SDS011;12678;51.336;12.406;2023-12-20T08:55:55;4.50;;;2.35;;
24517;SDS011;12678;51.336;12.406;2023-12-20T08:58:21;2.05;;;1.60;;
24517;SDS011;12678;51.336;12.406;2023-12-20T09:00:46;3.33;;;1.90;;
24517;SDS011;12678;51.336;12.406;2023-12-20T09:03:12;2.53;;;1.70;;
24517;SDS011;12678;51.336;12.406;2023-12-20T09:05:37;7.28;;;1.90;;
24517;SDS011;12678;51.336;12.406;2023-12-20T09:08:03;3.50;;;2.13;;
24517;SDS011;12678;51.336;12.406;2023-12-20T09:10:29;3.53;;;2.00;;
24517;SDS011;12678;51.336;12.406;2023-12-20T09:12:54;2.58;;;1.90;;
24517;SDS011;12678;51.336;12.406;2023-12-20T09:15:23;3.28;;;1.77;;
24517;SDS011;12678;51.336;12.406;2023-12-20T09:17:50;2.92;;;1.63;;
24517;SDS011;12678;51.336;12.406;2023-12-20T09:20:16;6.35;;;1.85;;
24517;SDS011;12678;51.336;12.406;2023-12-20T09:22:42;5.22;;;1.90;;
24517;SDS011;12678;51.336;12.406;2023-12-20T09:25:09;6.15;;;2.22;;
24517;SDS011;12678;51.336;12.406;2023-12-20T09:27:35;3.03;;;1.65;;
24517;SDS011;12678;51.336;12.406;2023-12-20T09:30:01;4.30;;;1.90;;
24517;SDS011;12678;51.336;12.406;2023-12-20T09:32:26;4.15;;;1.73;;
24517;SDS011;12678;51.336;12.406;2023-12-20T09:34:52;6.80;;;2.05;;
24517;SDS011;12678;51.336;12.406;2023-12-20T09:37:17;3.53;;;2.28;;
24517;SDS011;12678;51.336;12.406;2023-12-20T09:39:43;3.60;;;1.70;;
24517;SDS011;12678;51.336;12.406;2023-12-20T09:42:08;5.10;;;1.50;;
24517;SDS011;12678;51.336;12.406;2023-12-20T09:44:38;8.23;;;2.25;;
24517;SDS011;12678;51.336;12.406;2023-12-20T09:47:07;5.78;;;2.10;;
24517;SDS011;12678;51.336;12.406;2023-12-20T09:49:33;3.78;;;1.98;;
24517;SDS011;12678;51.336;12.406;2023-12-20T09:52:00;5.43;;;2.20;;
24517;SDS011;12678;51.336;12.406;2023-12-20T09:54:26;4.03;;;2.05;;
24517;SDS011;12678;51.336;12.406;2023-12-20T09:56:53;9.35;;;2.08;;
24517;SDS011;12678;51.336;12.406;2023-12-20T09:59:19;3.70;;;2.05;;
24517;SDS011;12678;51.336;12.406;2023-12-20T10:01:45;2.22;;;1.70;;
24517;SDS011;12678;51.336;12.406;2023-12-20T10:04:11;6.85;;;2.10;;
24517;SDS011;12678;51.336;12.406;2023-12-20T10:06:41;6.43;;;1.80;;
24517;SDS011;12678;51.336;12.406;2023-12-20T10:09:08;4.78;;;2.30;;
24517;SDS011;12678;51.336;12.406;2023-12-20T10:11:35;2.88;;;1.98;;
24517;SDS011;12678;51.336;12.406;2023-12-20T10:14:05;2.67;;;2.15;;
24517;SDS011;12678;51.336;12.406;2023-12-20T10:16:31;6.78;;;2.40;;
24517;SDS011;12678;51.336;12.406;2023-12-20T10:18:58;8.23;;;3.20;;
24517;SDS011;12678;51.336;12.406;2023-12-20T10:21:24;5.07;;;2.75;;
24517;SDS011;12678;51.336;12.406;2023-12-20T10:23:54;12.60;;;2.38;;
24517;SDS011;12678;51.336;12.406;2023-12-20T10:26:20;7.88;;;2.30;;
24517;SDS011;12678;51.336;12.406;2023-12-20T10:28:49;4.70;;;2.17;;
24517;SDS011;12678;51.336;12.406;2023-12-20T10:31:52;5.23;;;2.07;;
24517;SDS011;12678;51.336;12.406;2023-12-20T10:34:11;8.95;;;2.10;;
24517;SDS011;12678;51.336;12.406;2023-12-20T10:36:37;7.95;;;2.33;;
24517;SDS011;12678;51.336;12.406;2023-12-20T10:39:02;8.75;;;2.80;;
24517;SDS011;12678;51.336;12.406;2023-12-20T10:41:30;6.10;;;2.15;;
24517;SDS011;12678;51.336;12.406;2023-12-20T10:43:58;9.70;;;2.38;;
24517;SDS011;12678;51.336;12.406;2023-12-20T10:46:27;6.60;;;2.45;;
24517;SDS011;12678;51.336;12.406;2023-12-20T10:48:57;4.32;;;2.30;;
24517;SDS011;12678;51.336;12.406;2023-12-20T10:51:23;5.55;;;2.47;;
24517;SDS011;12678;51.336;12.406;2023-12-20T10:53:51;3.35;;;2.17;;
24517;SDS011;12678;51.336;12.406;2023-12-20T10:56:18;7.88;;;2.58;;
24517;SDS011;12678;51.336;12.406;2023-12-20T10:58:47;2.80;;;1.73;;
24517;SDS011;12678;51.336;12.406;2023-12-20T11:01:14;3.47;;;1.95;;
24517;SDS011;12678;51.336;12.406;2023-12-20T11:03:49;8.10;;;1.92;;
24517;SDS011;12678;51.336;12.406;2023-12-20T11:11:29;2.75;;;1.50;;
24517;SDS011;12678;51.336;12.406;2023-12-20T11:14:04;13.18;;;2.17;;
24517;SDS011;12678;51.336;12.406;2023-12-20T11:16:36;5.65;;;2.65;;
24517;SDS011;12678;51.336;12.406;2023-12-20T11:19:05;8.55;;;3.10;;
24517;SDS011;12678;51.336;12.406;2023-12-20T11:21:31;4.13;;;2.20;;
24517;SDS011;12678;51.336;12.406;2023-12-20T11:23:56;10.88;;;3.78;;
24517;SDS011;12678;51.336;12.406;2023-12-20T11:26:22;6.90;;;2.90;;
24517;SDS011;12678;51.336;12.406;2023-12-20T11:28:52;8.93;;;2.60;;
24517;SDS011;12678;51.336;12.406;2023-12-20T11:31:18;6.13;;;3.15;;
24517;SDS011;12678;51.336;12.406;2023-12-20T11:33:44;7.35;;;2.53;;
24517;SDS011;12678;51.336;12.406;2023-12-20T11:36:14;6.15;;;2.78;;
24517;SDS011;12678;51.336;12.406;2023-12-20T11:39:01;5.05;;;2.38;;
24517;SDS011;12678;51.336;12.406;2023-12-20T11:41:33;6.65;;;2.42;;
24517;SDS011;12678;51.336;12.406;2023-12-20T11:44:00;5.05;;;1.98;;
24517;SDS011;12678;51.336;12.406;2023-12-20T11:46:26;6.55;;;1.92;;
24517;SDS011;12678;51.336;12.406;2023-12-20T11:48:51;7.15;;;2.22;;
24517;SDS011;12678;51.336;12.406;2023-12-20T11:51:17;8.98;;;2.40;;
24517;SDS011;12678;51.336;12.406;2023-12-20T11:53:43;6.72;;;2.30;;
24517;SDS011;12678;51.336;12.406;2023-12-20T11:56:08;9.32;;;2.28;;
24517;SDS011;12678;51.336;12.406;2023-12-20T11:58:35;2.33;;;1.80;;
24517;SDS011;12678;51.336;12.406;2023-12-20T12:01:01;6.70;;;1.92;;
24517;SDS011;12678;51.336;12.406;2023-12-20T12:03:32;6.65;;;2.10;;
24517;SDS011;12678;51.336;12.406;2023-12-20T12:05:57;5.28;;;1.38;;
24517;SDS011;12678;51.336;12.406;2023-12-20T12:08:23;7.30;;;1.92;;
24517;SDS011;12678;51.336;12.406;2023-12-20T12:10:49;5.25;;;1.55;;
24517;SDS011;12678;51.336;12.406;2023-12-20T12:13:14;4.55;;;1.77;;
24517;SDS011;12678;51.336;12.406;2023-12-20T12:15:40;5.47;;;1.65;;
24517;SDS011;12678;51.336;12.406;2023-12-20T12:18:07;26.60;;;4.93;;
24517;SDS011;12678;51.336;12.406;2023-12-20T12:20:33;7.18;;;1.65;;
24517;SDS011;12678;51.336;12.406;2023-12-20T12:23:02;5.25;;;1.67;;
24517;SDS011;12678;51.336;12.406;2023-12-20T12:25:30;16.00;;;2.33;;
24517;SDS011;12678;51.336;12.406;2023-12-20T12:27:56;6.63;;;2.05;;
24517;SDS011;12678;51.336;12.406;2023-12-20T12:30:22;4.50;;;1.85;;
24517;SDS011;12678;51.336;12.406;2023-12-20T12:32:48;4.18;;;1.70;;
24517;SDS011;12678;51.336;12.406;2023-12-20T12:35:14;10.48;;;2.40;;
24517;SDS011;12678;51.336;12.406;2023-12-20T12:37:40;3.80;;;1.55;;
24517;SDS011;12678;51.336;12.406;2023-12-20T12:40:13;5.47;;;2.30;;
24517;SDS011;12678;51.336;12.406;2023-12-20T12:42:40;5.70;;;2.08;;
24517;SDS011;12678;51.336;12.406;2023-12-20T12:45:08;4.82;;;2.15;;
24517;SDS011;12678;51.336;12.406;2023-12-20T12:47:34;12.32;;;2.30;;
24517;SDS011;12678;51.336;12.406;2023-12-20T12:50:00;3.85;;;2.05;;
24517;SDS011;12678;51.336;12.406;2023-12-20T12:52:28;18.98;;;4.00;;
24517;SDS011;12678;51.336;12.406;2023-12-20T12:54:53;4.78;;;1.45;;
24517;SDS011;12678;51.336;12.406;2023-12-20T12:57:19;6.53;;;1.90;;
24517;SDS011;12678;51.336;12.406;2023-12-20T12:59:45;5.00;;;1.50;;
24517;SDS011;12678;51.336;12.406;2023-12-20T13:02:14;5.35;;;1.40;;
24517;SDS011;12678;51.336;12.406;2023-12-20T13:04:40;2.53;;;1.60;;
24517;SDS011;12678;51.336;12.406;2023-12-20T13:07:08;2.22;;;1.80;;
24517;SDS011;12678;51.336;12.406;2023-12-20T13:09:36;3.67;;;1.50;;
24517;SDS011;12678;51.336;12.406;2023-12-20T13:12:02;3.42;;;1.45;;
24517;SDS011;12678;51.336;12.406;2023-12-20T13:14:34;6.57;;;1.50;;
24517;SDS011;12678;51.336;12.406;2023-12-20T13:17:02;2.78;;;1.40;;
24517;SDS011;12678;51.336;12.406;2023-12-20T13:19:28;2.83;;;1.73;;
24517;SDS011;12678;51.336;12.406;2023-12-20T13:21:55;8.90;;;1.55;;
24517;SDS011;12678;51.336;12.406;2023-12-20T13:24:21;6.22;;;1.65;;
24517;SDS011;12678;51.336;12.406;2023-12-20T13:26:46;4.45;;;1.73;;
24517;SDS011;12678;51.336;12.406;2023-12-20T13:29:12;6.72;;;2.05;;
24517;SDS011;12678;51.336;12.406;2023-12-20T13:31:37;3.08;;;1.60;;
24517;SDS011;12678;51.336;12.406;2023-12-20T13:34:04;4.70;;;1.25;;
24517;SDS011;12678;51.336;12.406;2023-12-20T13:36:30;4.53;;;1.48;;
24517;SDS011;12678;51.336;12.406;2023-12-20T13:38:56;5.13;;;1.60;;
24517;SDS011;12678;51.336;12.406;2023-12-20T13:41:21;6.53;;;1.65;;
24517;SDS011;12678;51.336;12.406;2023-12-20T13:43:47;2.03;;;1.70;;
24517;SDS011;12678;51.336;12.406;2023-12-20T13:46:12;3.42;;;1.63;;
24517;SDS011;12678;51.336;12.406;2023-12-20T13:48:39;2.67;;;1.48;;
24517;SDS011;12678;51.336;12.406;2023-12-20T13:51:04;2.40;;;1.85;;
24517;SDS011;12678;51.336;12.406;2023-12-20T13:53:31;5.00;;;1.42;;
24517;SDS011;12678;51.336;12.406;2023-12-20T13:55:56;2.38;;;1.30;;
24517;SDS011;12678;51.336;12.406;2023-12-20T13:58:22;7.00;;;1.65;;
24517;SDS011;12678;51.336;12.406;2023-12-20T14:00:48;3.10;;;1.67;;
24517;SDS011;12678;51.336;12.406;2023-12-20T14:03:13;4.45;;;1.60;;
24517;SDS011;12678;51.336;12.406;2023-12-20T14:05:39;3.53;;;1.80;;
24517;SDS011;12678;51.336;12.406;2023-12-20T14:08:05;5.72;;;1.75;;
24517;SDS011;12678;51.336;12.406;2023-12-20T14:10:31;1.80;;;1.20;;
24517;SDS011;12678;51.336;12.406;2023-12-20T14:12:57;1.67;;;1.20;;
24517;SDS011;12678;51.336;12.406;2023-12-20T14:15:22;6.75;;;1.60;;
24517;SDS011;12678;51.336;12.406;2023-12-20T14:17:50;4.15;;;1.45;;
24517;SDS011;12678;51.336;12.406;2023-12-20T14:20:16;3.58;;;1.48;;
24517;SDS011;12678;51.336;12.406;2023-12-20T14:22:41;2.50;;;1.48;;
24517;SDS011;12678;51.336;12.406;2023-12-20T14:25:11;5.90;;;1.30;;
24517;SDS011;12678;51.336;12.406;2023-12-20T14:27:38;1.83;;;1.17;;
24517;SDS011;12678;51.336;12.406;2023-12-20T14:30:10;2.73;;;1.30;;
24517;SDS011;12678;51.336;12.406;2023-12-20T14:32:39;5.53;;;1.70;;